createdAt,value
2018-01-31T01:52:21.110Z,100374.22
2018-01-31T01:54:41.853Z,100368.80
2018-01-31T01:57:08.175Z,100366.11
2018-01-31T01:59:34.483Z,100360.32
2018-01-31T02:02:00.755Z,100351.75
2018-01-31T02:04:26.983Z,100358.31
2018-01-31T02:06:53.299Z,100356.69
2018-01-31T02:09:19.547Z,100348.53
2018-01-31T02:11:45.877Z,100336.83
2018-01-31T02:14:12.134Z,100333.58
2018-01-31T02:16:38.415Z,100328.11
2018-01-31T02:19:04.665Z,100326.06
2018-01-31T02:21:30.981Z,100319.28
2018-01-31T02:23:57.305Z,100315.19
2018-01-31T02:26:23.548Z,100315.47
2018-01-31T02:28:49.862Z,100290.16
2018-01-31T02:31:16.179Z,100303.25
2018-01-31T02:33:42.448Z,100286.00
2018-01-31T02:36:08.725Z,100281.92
2018-01-31T02:38:53.593Z,100283.35
2018-01-31T02:41:19.867Z,100270.59
2018-01-31T02:43:46.131Z,100266.39
2018-01-31T02:46:13.165Z,100254.50
2018-01-31T02:48:40.191Z,100253.91
2018-01-31T02:51:06.467Z,100248.44
2018-01-31T02:53:32.768Z,100244.45
2018-01-31T02:55:59.814Z,100240.83
2018-01-31T02:58:26.086Z,100218.34
2018-01-31T03:00:52.358Z,100221.19
2018-01-31T03:03:18.609Z,100215.92
2018-01-31T03:05:44.898Z,100212.74
2018-01-31T03:08:11.179Z,100204.37
2018-01-31T03:10:38.188Z,100200.23
2018-01-31T03:13:04.498Z,100198.16
2018-01-31T03:15:30.770Z,100190.92
2018-01-31T03:17:57.110Z,100185.89
2018-01-31T03:20:24.201Z,100184.91
2018-01-31T03:22:50.570Z,100186.17
2018-01-31T03:25:17.042Z,100177.21
2018-01-31T03:27:43.313Z,100169.61
2018-01-31T03:30:09.637Z,100161.12
2018-01-31T03:32:36.013Z,100158.41
2018-01-31T03:35:03.101Z,100150.98
2018-01-31T03:37:29.391Z,100137.94
2018-01-31T03:39:56.419Z,100126.77
2018-01-31T03:42:22.649Z,100122.44
2018-01-31T03:44:48.885Z,100127.95
2018-01-31T03:47:15.181Z,100122.14
2018-01-31T03:49:41.496Z,100121.49
2018-01-31T03:52:07.771Z,100110.93
2018-01-31T03:54:34.032Z,100109.75
2018-01-31T03:57:01.030Z,100111.16
2018-01-31T03:59:27.257Z,100095.80
2018-01-31T04:01:53.508Z,100098.48
2018-01-31T04:04:19.735Z,100096.56
2018-01-31T04:06:47.466Z,100085.08
2018-01-31T04:09:13.730Z,100083.69
2018-01-31T04:11:40.034Z,100074.42
2018-01-31T04:14:06.301Z,100071.47
2018-01-31T04:16:32.589Z,100068.34
2018-01-31T04:18:58.880Z,100074.97
2018-01-31T04:21:25.962Z,100075.43
2018-01-31T04:23:52.293Z,100068.80
2018-01-31T04:26:18.583Z,100062.39
2018-01-31T04:28:45.568Z,100066.23
2018-01-31T04:31:11.817Z,100057.37
2018-01-31T04:33:38.067Z,100048.99
2018-01-31T04:36:04.319Z,100046.95
2018-01-31T04:38:30.728Z,100035.16
2018-01-31T04:40:57.399Z,100032.06
2018-01-31T04:43:23.651Z,100024.85
2018-01-31T04:45:49.915Z,100024.20
2018-01-31T04:48:16.143Z,100017.70
2018-01-31T04:50:42.457Z,100014.02
2018-01-31T04:53:08.731Z,100010.34
2018-01-31T04:55:35.788Z,100004.03
2018-01-31T04:58:02.813Z,100016.09
2018-01-31T05:00:29.127Z,100013.66
2018-01-31T05:02:55.431Z,100018.47
2018-01-31T05:05:21.712Z,100008.91
2018-01-31T05:07:47.968Z,100003.76
2018-01-31T05:10:14.232Z,99999.43
2018-01-31T05:12:40.502Z,100001.73
2018-01-31T05:15:07.492Z,99994.47
2018-01-31T05:17:33.843Z,100001.27
2018-01-31T05:20:00.105Z,99988.78
2018-01-31T05:22:27.136Z,99984.05
2018-01-31T05:24:53.513Z,99981.13
2018-01-31T05:27:19.778Z,99972.70
2018-01-31T05:29:46.255Z,99968.48
2018-01-31T05:32:12.507Z,99956.70
2018-01-31T05:34:39.594Z,99956.91
2018-01-31T05:37:05.870Z,99955.09
2018-01-31T05:39:32.863Z,99954.38
2018-01-31T05:41:59.201Z,99941.84
2018-01-31T05:44:25.515Z,99941.70
2018-01-31T05:46:51.814Z,99949.39
2018-01-31T05:49:18.810Z,99945.31
2018-01-31T05:51:45.126Z,99940.61
2018-01-31T05:54:11.578Z,99927.73
2018-01-31T05:56:37.944Z,99931.64
2018-01-31T05:59:04.296Z,99925.11
2018-01-31T06:01:30.566Z,99918.41
2018-01-31T06:03:56.810Z,99910.22
2018-01-31T06:06:23.088Z,99901.34
2018-01-31T06:08:50.108Z,99895.52
2018-01-31T06:11:16.452Z,99893.98
2018-01-31T06:13:43.516Z,99887.42
2018-01-31T06:16:09.872Z,99892.62
2018-01-31T06:18:36.180Z,99882.38
2018-01-31T06:21:02.511Z,99882.20
2018-01-31T06:23:28.779Z,99870.95
2018-01-31T06:25:55.078Z,99868.36
2018-01-31T06:28:21.367Z,99850.17
2018-01-31T06:30:52.241Z,99847.66
2018-01-31T06:33:18.586Z,99841.48
2018-01-31T06:35:44.865Z,99833.97
2018-01-31T06:38:11.223Z,99821.83
2018-01-31T06:40:38.317Z,99824.47
2018-01-31T06:43:04.578Z,99827.03
2018-01-31T06:45:31.632Z,99833.80
2018-01-31T06:47:57.900Z,99820.59
2018-01-31T06:50:24.152Z,99811.84
2018-01-31T06:52:50.726Z,99821.90
2018-01-31T06:55:17.290Z,99811.96
2018-01-31T06:57:43.634Z,99810.70
2018-01-31T07:00:09.894Z,99813.78
2018-01-31T07:02:37.161Z,99804.95
2018-01-31T07:05:03.431Z,99791.94
2018-01-31T07:07:29.709Z,99800.74
2018-01-31T07:09:56.011Z,99801.11
2018-01-31T07:12:22.281Z,99786.61
2018-01-31T07:14:48.533Z,99781.86
2018-01-31T07:17:14.845Z,99761.77
2018-01-31T07:19:41.113Z,99761.91
2018-01-31T07:22:08.140Z,99758.40
2018-01-31T07:24:34.488Z,99753.17
2018-01-31T07:27:01.528Z,99753.83
2018-01-31T07:29:28.614Z,99741.30
2018-01-31T07:31:54.983Z,99730.27
2018-01-31T07:34:21.544Z,99728.56
2018-01-31T07:36:48.048Z,99720.96
2018-01-31T07:39:14.406Z,99718.97
2018-01-31T07:41:41.976Z,99708.55
2018-01-31T07:44:08.943Z,99704.93
2018-01-31T07:46:35.267Z,99699.66
2018-01-31T07:49:01.789Z,99685.49
2018-01-31T07:51:28.835Z,99681.33
2018-01-31T07:53:55.887Z,99686.32
2018-01-31T07:56:22.216Z,99678.67
2018-01-31T07:58:49.203Z,99678.69
2018-01-31T08:01:15.478Z,99677.13
2018-01-31T08:03:41.698Z,99669.39
2018-01-31T08:06:07.998Z,99676.17
2018-01-31T08:08:34.280Z,99667.23
2018-01-31T08:11:01.300Z,99675.97
2018-01-31T08:13:27.538Z,99659.27
2018-01-31T08:15:53.796Z,99662.85
2018-01-31T08:18:20.808Z,99653.81
2018-01-31T08:20:47.090Z,99642.89
2018-01-31T08:23:13.326Z,99636.31
2018-01-31T08:25:39.695Z,99632.84
2018-01-31T08:28:05.958Z,99630.08
2018-01-31T08:30:32.965Z,99629.61
2018-01-31T08:32:59.440Z,99628.59
2018-01-31T08:35:25.709Z,99622.67
2018-01-31T08:37:51.975Z,99610.80
2018-01-31T08:40:18.307Z,99611.17
2018-01-31T08:42:44.564Z,99596.19
2018-01-31T08:45:11.587Z,99594.03
2018-01-31T08:47:37.843Z,99590.20
2018-01-31T08:50:04.138Z,99582.34
2018-01-31T08:52:30.381Z,99582.05
2018-01-31T08:54:56.664Z,99577.77
2018-01-31T08:57:22.919Z,99566.83
2018-01-31T08:59:49.207Z,99562.27
2018-01-31T09:02:15.532Z,99557.62
2018-01-31T09:04:41.814Z,99566.05
2018-01-31T09:07:08.096Z,99568.68
2018-01-31T09:09:34.390Z,99556.61
2018-01-31T09:12:00.660Z,99551.00
2018-01-31T09:14:26.930Z,99545.36
2018-01-31T09:16:53.180Z,99543.03
2018-01-31T09:19:19.504Z,99531.94
2018-01-31T09:21:45.750Z,99531.64
2018-01-31T09:24:12.812Z,99528.92
2018-01-31T09:26:39.123Z,99518.47
2018-01-31T09:29:06.196Z,99514.33
2018-01-31T09:31:32.515Z,99510.66
2018-01-31T09:33:59.557Z,99498.56
2018-01-31T09:36:26.585Z,99496.63
2018-01-31T09:38:52.881Z,99487.31
2018-01-31T09:41:19.167Z,99496.03
2018-01-31T09:43:46.188Z,99469.42
2018-01-31T09:46:13.955Z,99487.09
2018-01-31T09:48:40.308Z,99461.10
2018-01-31T09:51:07.325Z,99463.30
2018-01-31T09:53:33.629Z,99457.45
2018-01-31T09:55:59.917Z,99454.05
2018-01-31T09:58:26.971Z,99456.17
2018-01-31T10:00:54.017Z,99458.34
2018-01-31T10:03:21.158Z,99460.87
2018-01-31T10:05:47.503Z,99430.13
2018-01-31T10:08:14.545Z,99438.77
2018-01-31T10:10:42.548Z,99440.97
2018-01-31T10:13:08.819Z,99443.11
2018-01-31T10:15:35.059Z,99426.91
2018-01-31T10:18:01.407Z,99426.63
2018-01-31T10:20:28.221Z,99409.61
2018-01-31T10:22:54.483Z,99405.48
2018-01-31T10:25:21.460Z,99411.78
2018-01-31T10:27:47.723Z,99396.30
2018-01-31T10:30:13.954Z,99397.28
2018-01-31T10:32:40.256Z,99388.94
2018-01-31T10:35:06.558Z,99383.14
2018-01-31T10:37:32.844Z,99378.28
2018-01-31T10:39:59.120Z,99371.67
2018-01-31T10:42:25.630Z,99360.31
2018-01-31T10:44:51.984Z,99358.52
2018-01-31T10:47:19.190Z,99345.84
2018-01-31T10:49:45.511Z,99361.30
2018-01-31T10:52:11.774Z,99347.09
2018-01-31T10:57:28.966Z,99327.19
2018-01-31T10:59:32.885Z,99333.52
2018-01-31T11:01:59.227Z,99309.34
2018-01-31T11:04:25.545Z,99308.31
2018-01-31T11:06:51.897Z,99293.03
2018-01-31T11:09:18.170Z,99298.14
2018-01-31T11:11:44.430Z,99294.72
2018-01-31T11:14:10.711Z,99297.80
2018-01-31T11:16:37.733Z,99288.78
2018-01-31T11:19:04.008Z,99292.41
2018-01-31T11:21:30.265Z,99284.16
2018-01-31T11:23:56.534Z,99275.52
2018-01-31T11:26:22.805Z,99276.53
2018-01-31T11:28:49.051Z,99269.63
2018-01-31T11:31:15.372Z,99284.44
2018-01-31T11:33:41.638Z,99265.75
2018-01-31T11:36:07.904Z,99249.48
2018-01-31T11:38:34.934Z,99249.16
2018-01-31T11:41:02.010Z,99242.50
2018-01-31T11:43:28.287Z,99240.76
2018-01-31T11:45:54.593Z,99246.27
2018-01-31T11:48:20.883Z,99232.09
2018-01-31T11:50:47.191Z,99226.38
2018-01-31T11:53:13.525Z,99223.32
2018-01-31T11:55:39.787Z,99218.60
2018-01-31T11:58:06.093Z,99203.46
2018-01-31T12:00:46.929Z,99200.86
2018-01-31T12:03:13.432Z,99181.62
2018-01-31T12:05:39.975Z,99177.80
2018-01-31T12:08:06.265Z,99170.27
2018-01-31T12:10:41.361Z,99184.16
2018-01-31T12:13:26.146Z,99169.08
2018-01-31T12:16:11.023Z,99156.80
2018-01-31T12:18:56.051Z,99144.91
2018-01-31T12:21:42.027Z,99136.92
2018-01-31T12:24:26.919Z,99123.80
2018-01-31T12:30:23.228Z,99091.83
2018-01-31T12:33:08.932Z,99120.52
2018-01-31T12:35:53.946Z,99087.04
2018-01-31T12:38:38.884Z,99075.38
2018-01-31T12:41:05.020Z,99070.98
2018-01-31T12:43:31.270Z,99061.12
2018-01-31T12:49:26.319Z,99077.42
2018-01-31T12:52:09.902Z,99047.93
2018-01-31T12:54:54.881Z,99051.61
2018-01-31T12:57:30.174Z,99035.06
2018-01-31T13:00:15.059Z,99040.54
2018-01-31T13:03:07.441Z,99045.02
2018-01-31T13:09:06.253Z,99037.05
2018-01-31T13:11:51.120Z,99034.08
2018-01-31T13:14:35.931Z,99027.19
2018-01-31T13:17:20.892Z,99020.16
2018-01-31T13:20:06.473Z,99011.78
2018-01-31T13:22:54.826Z,99016.34
2018-01-31T13:25:40.385Z,99012.50
2018-01-31T13:28:31.495Z,99007.24
2018-01-31T13:31:21.351Z,98988.99
2018-01-31T13:34:06.178Z,98989.77
2018-01-31T13:36:51.020Z,98986.06
2018-01-31T13:39:35.960Z,98969.50
2018-01-31T13:42:27.151Z,98973.28
2018-01-31T13:45:12.068Z,98968.58
2018-01-31T13:47:57.861Z,98967.75
2018-01-31T13:53:59.010Z,98938.56
2018-01-31T13:56:44.075Z,98959.53
2018-01-31T13:59:29.020Z,98959.81
2018-01-31T14:02:14.118Z,98944.77
2018-01-31T14:04:59.071Z,98934.69
2018-01-31T14:07:43.948Z,98926.73
2018-01-31T14:10:28.795Z,98909.20
2018-01-31T14:16:26.529Z,98917.93
2018-01-31T14:19:12.094Z,98908.73
2018-01-31T14:21:57.043Z,98910.34
2018-01-31T14:24:41.992Z,98919.88
2018-01-31T14:27:26.914Z,98922.33
2018-01-31T14:30:11.916Z,98901.97
2018-01-31T14:32:56.934Z,98897.58
2018-01-31T14:35:41.945Z,98892.35
2018-01-31T14:38:08.111Z,98882.86
2018-01-31T14:40:34.237Z,98896.30
2018-01-31T14:43:00.364Z,98881.05
2018-01-31T14:45:26.615Z,98892.56
2018-01-31T14:47:52.703Z,98878.09
2018-01-31T14:50:18.814Z,98881.41
2018-01-31T14:52:44.913Z,98885.98
2018-01-31T14:55:11.773Z,98876.34
2018-01-31T14:57:37.885Z,98861.59
2018-01-31T15:00:05.908Z,98854.43
2018-01-31T15:02:32.054Z,98852.48
2018-01-31T15:04:58.160Z,98864.16
2018-01-31T15:07:24.306Z,98848.24
2018-01-31T15:09:50.442Z,98840.77
2018-01-31T15:12:16.666Z,98816.05
2018-01-31T15:14:42.810Z,98812.17
2018-01-31T15:17:09.664Z,98803.56
2018-01-31T15:19:36.543Z,98797.80
2018-01-31T15:22:03.717Z,98791.31
2018-01-31T15:24:29.895Z,98802.36
2018-01-31T15:26:56.041Z,98784.28
2018-01-31T15:29:22.193Z,98779.98
2018-01-31T15:31:48.335Z,98785.55
2018-01-31T15:34:14.465Z,98779.72
2018-01-31T15:36:40.629Z,98777.22
2018-01-31T15:39:07.475Z,98775.09
2018-01-31T15:41:34.328Z,98763.38
2018-01-31T15:44:00.462Z,98779.84
2018-01-31T15:46:26.637Z,98776.81
2018-01-31T15:48:52.725Z,98768.19
2018-01-31T15:51:18.863Z,98764.53
2018-01-31T15:53:44.992Z,98745.41
2018-01-31T15:56:11.105Z,98747.27
2018-01-31T15:58:37.261Z,98747.00
2018-01-31T16:01:03.428Z,98744.16
2018-01-31T16:03:29.576Z,98738.72
2018-01-31T16:05:55.722Z,98733.97
2018-01-31T16:08:21.957Z,98730.41
2018-01-31T16:10:48.143Z,98733.25
2018-01-31T16:13:14.334Z,98713.33
2018-01-31T16:15:40.564Z,98730.61
2018-01-31T16:18:06.818Z,98725.09
2018-01-31T16:20:47.276Z,98725.31
2018-01-31T16:23:14.381Z,98718.70
2018-01-31T16:25:40.716Z,98724.24
2018-01-31T16:28:25.761Z,98714.31
2018-01-31T16:30:52.028Z,98711.48
2018-01-31T16:33:27.573Z,98710.22
2018-01-31T16:35:53.829Z,98706.82
2018-01-31T16:38:20.199Z,98691.27
2018-01-31T16:40:46.493Z,98694.67
2018-01-31T16:43:13.664Z,98685.78
2018-01-31T16:45:39.933Z,98683.06
2018-01-31T16:48:07.023Z,98677.73
2018-01-31T16:50:34.026Z,98675.91
2018-01-31T16:53:00.308Z,98668.61
2018-01-31T16:55:27.412Z,98657.56
2018-01-31T16:57:53.726Z,98675.04
2018-01-31T17:00:19.993Z,98664.88
2018-01-31T17:02:46.366Z,98654.97
2018-01-31T17:05:12.712Z,98644.05
2018-01-31T17:07:39.016Z,98639.80
2018-01-31T17:10:06.126Z,98617.50
2018-01-31T17:12:33.189Z,98615.74
2018-01-31T17:14:59.461Z,98614.37
2018-01-31T17:17:25.927Z,98603.63
2018-01-31T17:19:53.125Z,98604.32
2018-01-31T17:22:19.507Z,98619.89
2018-01-31T17:24:45.844Z,98628.98
2018-01-31T17:29:39.051Z,98606.56
2018-01-31T17:32:05.393Z,98614.05
2018-01-31T17:34:32.454Z,98609.70
2018-01-31T17:36:59.548Z,98618.32
2018-01-31T17:39:25.996Z,98617.08
2018-01-31T17:41:52.344Z,98621.53
2018-01-31T17:44:18.644Z,98605.23
2018-01-31T17:46:44.976Z,98603.72
2018-01-31T17:49:11.266Z,98598.54
2018-01-31T17:51:38.386Z,98590.92
2018-01-31T17:54:04.712Z,98583.87
2018-01-31T17:56:30.980Z,98572.42
2018-01-31T17:58:57.430Z,98552.69
2018-01-31T18:01:23.812Z,98561.39
2018-01-31T18:03:50.180Z,98554.88
2018-01-31T18:06:16.585Z,98547.37
2018-01-31T18:08:43.671Z,98562.03
2018-01-31T18:11:09.959Z,98553.11
2018-01-31T18:13:36.395Z,98551.53
2018-01-31T18:16:02.747Z,98555.42
2018-01-31T18:18:29.103Z,98544.23
2018-01-31T18:20:55.427Z,98543.95
2018-01-31T18:23:21.825Z,98542.16
2018-01-31T18:25:48.965Z,98537.61
2018-01-31T18:28:15.394Z,98538.58
2018-01-31T18:30:42.103Z,98539.95
2018-01-31T18:33:08.668Z,98530.13
2018-01-31T18:35:34.982Z,98523.27
2018-01-31T18:38:01.250Z,98522.37
2018-01-31T18:40:28.292Z,98506.83
2018-01-31T18:42:55.461Z,98503.25
2018-01-31T18:45:22.521Z,98510.14
2018-01-31T18:47:48.860Z,98518.38
2018-01-31T18:50:15.250Z,98499.80
2018-01-31T18:52:41.671Z,98495.17
2018-01-31T18:55:08.009Z,98492.20
2018-01-31T18:57:34.405Z,98490.55
2018-01-31T19:00:00.772Z,98484.65
2018-01-31T19:02:27.068Z,98470.75
2018-01-31T19:04:53.426Z,98464.19
2018-01-31T19:07:20.019Z,98475.01
2018-01-31T19:09:46.338Z,98471.75
2018-01-31T19:12:12.697Z,98458.53
2018-01-31T19:14:38.989Z,98450.35
2018-01-31T19:17:06.074Z,98450.42
2018-01-31T19:19:32.474Z,98448.67
2018-01-31T19:21:59.032Z,98450.95
2018-01-31T19:24:25.368Z,98436.69
2018-01-31T19:26:58.643Z,98445.55
2018-01-31T19:29:25.111Z,98437.36
2018-01-31T19:31:51.451Z,98435.91
2018-01-31T19:34:17.713Z,98432.55
2018-01-31T19:36:44.331Z,98443.10
2018-01-31T19:39:11.516Z,98438.34
2018-01-31T19:41:38.564Z,98432.05
2018-01-31T19:44:05.826Z,98425.84
2018-01-31T19:46:32.278Z,98421.84
2018-01-31T19:48:58.590Z,98423.34
2018-01-31T19:51:24.948Z,98425.13
2018-01-31T19:53:51.291Z,98419.11
2018-01-31T19:56:17.665Z,98418.77
2018-01-31T19:58:44.063Z,98417.77
2018-01-31T20:01:10.497Z,98410.17
2018-01-31T20:03:36.824Z,98404.21
2018-01-31T20:06:04.396Z,98398.78
2018-01-31T20:08:30.779Z,98398.39
2018-01-31T20:10:57.105Z,98392.02
2018-01-31T20:13:23.537Z,98387.38
2018-01-31T20:15:49.879Z,98389.83
2018-01-31T20:18:21.314Z,98388.04
2018-01-31T20:20:48.421Z,98382.91
2018-01-31T20:23:14.720Z,98391.38
2018-01-31T20:25:41.009Z,98388.28
2018-01-31T20:28:07.347Z,98377.27
2018-01-31T20:30:34.551Z,98377.09
2018-01-31T20:33:00.863Z,98374.38
2018-01-31T20:35:27.149Z,98367.73
2018-01-31T20:37:54.393Z,98366.62
2018-01-31T20:40:20.765Z,98367.88
2018-01-31T20:42:47.155Z,98358.78
2018-01-31T20:45:13.575Z,98353.85
2018-01-31T20:47:39.955Z,98346.37
2018-01-31T20:50:06.997Z,98350.67
2018-01-31T20:52:34.027Z,98339.70
2018-01-31T20:55:00.305Z,98343.99
2018-01-31T20:57:26.612Z,98341.30
2018-01-31T20:59:52.981Z,98337.77
2018-01-31T21:02:19.403Z,98336.30
2018-01-31T21:04:45.800Z,98326.14
2018-01-31T21:07:14.023Z,98330.61
2018-01-31T21:09:40.273Z,98325.83
2018-01-31T21:12:06.563Z,98325.24
2018-01-31T21:14:33.032Z,98336.91
2018-01-31T21:16:59.300Z,98330.72
2018-01-31T21:19:26.411Z,98331.98
2018-01-31T21:21:52.731Z,98324.30
2018-01-31T21:24:19.073Z,98317.80
2018-01-31T21:26:45.500Z,98302.89
2018-01-31T21:29:11.772Z,98297.71
2018-01-31T21:31:38.788Z,98306.58
2018-01-31T21:34:05.120Z,98303.97
2018-01-31T21:36:31.379Z,98302.03
2018-01-31T21:38:57.677Z,98293.91
2018-01-31T21:41:23.927Z,98289.55
2018-01-31T21:43:50.248Z,98293.61
2018-01-31T21:46:16.534Z,98295.00
2018-01-31T21:48:42.858Z,98289.61
2018-01-31T21:51:09.848Z,98276.73
2018-01-31T21:53:36.280Z,98281.77
2018-01-31T21:56:02.528Z,98280.23
2018-01-31T21:58:28.905Z,98282.16
2018-01-31T22:00:55.176Z,98275.49
2018-01-31T22:03:22.221Z,98273.90
2018-01-31T22:05:48.519Z,98269.57
2018-01-31T22:08:14.776Z,98273.49
2018-01-31T22:10:41.080Z,98265.14
2018-01-31T22:13:07.336Z,98265.98
2018-01-31T22:15:33.601Z,98261.03
2018-01-31T22:18:00.621Z,98263.91
2018-01-31T22:20:26.879Z,98256.85
2018-01-31T22:22:53.893Z,98258.22
2018-01-31T22:25:20.161Z,98249.31
2018-01-31T22:27:47.415Z,98249.81
2018-01-31T22:30:14.511Z,98251.38
2018-01-31T22:32:40.828Z,98242.70
2018-01-31T22:35:07.087Z,98246.77
2018-01-31T22:37:33.371Z,98244.91
2018-01-31T22:39:59.643Z,98240.87
2018-01-31T22:42:25.891Z,98238.97
2018-01-31T22:44:52.184Z,98237.08
2018-01-31T22:47:18.440Z,98227.08
2018-01-31T22:49:44.752Z,98235.97
2018-01-31T22:52:10.992Z,98232.32
2018-01-31T22:54:37.290Z,98237.75
2018-01-31T22:57:03.566Z,98243.42
2018-01-31T22:59:30.632Z,98236.06
2018-01-31T23:01:57.640Z,98232.72
2018-01-31T23:04:23.908Z,98239.02
2018-01-31T23:06:50.950Z,98230.29
2018-01-31T23:09:17.939Z,98230.15
2018-01-31T23:11:44.203Z,98226.89
2018-01-31T23:14:16.780Z,98230.30
2018-01-31T23:16:43.068Z,98236.38
2018-01-31T23:19:16.289Z,98236.94
2018-01-31T23:21:42.653Z,98238.00
2018-01-31T23:24:09.662Z,98233.05
2018-01-31T23:26:35.932Z,98218.88
2018-01-31T23:29:02.244Z,98227.95
2018-01-31T23:31:28.501Z,98227.13
2018-01-31T23:33:54.747Z,98226.95
2018-01-31T23:36:21.786Z,98229.27
2018-01-31T23:38:48.756Z,98222.42
2018-01-31T23:41:14.994Z,98235.31
2018-01-31T23:43:41.300Z,98230.51
2018-01-31T23:46:08.320Z,98233.25
2018-01-31T23:48:34.625Z,98236.05
2018-01-31T23:51:00.863Z,98237.62
2018-01-31T23:53:27.132Z,98238.89
2018-01-31T23:55:54.131Z,98242.23
2018-01-31T23:58:20.399Z,98235.65
